createdAt,value
2023-05-08T00:01:41.023Z,3.20
2023-05-08T00:04:09.879Z,3.35
2023-05-08T00:06:38.741Z,3.47
2023-05-08T00:09:08.708Z,3.33
2023-05-08T00:11:37.685Z,3.53
2023-05-08T00:14:07.980Z,3.30
2023-05-08T00:16:36.624Z,3.17
2023-05-08T00:19:05.511Z,3.30
2023-05-08T00:21:34.275Z,3.50
2023-05-08T00:24:04.297Z,3.40
2023-05-08T00:26:33.487Z,3.20
2023-05-08T00:29:05.573Z,3.30
2023-05-08T00:31:35.289Z,3.25
2023-05-08T00:34:05.979Z,3.75
2023-05-08T00:36:35.164Z,2.90
2023-05-08T00:39:04.010Z,3.25
2023-05-08T00:41:32.903Z,3.25
2023-05-08T00:44:01.881Z,3.22
2023-05-08T00:46:29.672Z,3.30
2023-05-08T00:48:57.490Z,3.30
2023-05-08T00:51:50.606Z,3.25
2023-05-08T00:54:43.773Z,3.67
2023-05-08T00:57:13.447Z,3.38
2023-05-08T00:59:42.206Z,3.30
2023-05-08T01:02:10.482Z,2.80
2023-05-08T01:04:38.200Z,3.28
2023-05-08T01:07:05.561Z,3.35
2023-05-08T01:09:32.968Z,3.25
2023-05-08T01:12:16.576Z,3.35
2023-05-08T01:14:52.560Z,3.60
2023-05-08T01:17:49.347Z,3.90
2023-05-08T01:20:20.050Z,4.10
2023-05-08T01:23:06.471Z,3.63
2023-05-08T01:25:55.742Z,3.70
2023-05-08T01:28:32.473Z,3.33
2023-05-08T01:34:28.689Z,3.35
2023-05-08T01:37:01.429Z,3.63
2023-05-08T01:39:46.344Z,3.42
2023-05-08T01:42:13.656Z,3.20
2023-05-08T01:44:52.247Z,3.30
2023-05-08T01:47:21.058Z,3.50
2023-05-08T01:49:49.772Z,3.63
2023-05-08T01:52:21.695Z,4.07
2023-05-08T01:55:06.297Z,3.77
2023-05-08T01:57:34.152Z,3.10
2023-05-08T02:00:02.036Z,3.50
2023-05-08T02:02:38.453Z,2.90
2023-05-08T02:05:08.230Z,2.72
2023-05-08T02:07:38.551Z,2.70
2023-05-08T02:10:07.150Z,3.03
2023-05-08T02:12:35.459Z,2.70
2023-05-08T02:15:04.096Z,2.83
2023-05-08T02:17:32.684Z,2.95
2023-05-08T02:20:01.575Z,2.60
2023-05-08T02:22:29.469Z,2.60
2023-05-08T02:24:58.636Z,2.85
2023-05-08T02:27:28.238Z,3.20
2023-05-08T02:29:58.139Z,3.28
2023-05-08T02:32:26.988Z,2.97
2023-05-08T02:35:03.223Z,3.53
2023-05-08T02:37:32.948Z,2.92
2023-05-08T02:40:02.376Z,2.92
2023-05-08T02:42:32.581Z,3.42
2023-05-08T02:45:00.540Z,2.80
2023-05-08T02:47:38.510Z,3.10
2023-05-08T02:50:21.289Z,2.83
2023-05-08T02:52:54.834Z,2.72
2023-05-08T02:55:40.352Z,3.10
2023-05-08T02:58:19.959Z,3.00
2023-05-08T03:00:56.536Z,2.88
2023-05-08T03:03:26.308Z,3.40
2023-05-08T03:06:00.479Z,2.95
2023-05-08T03:08:32.257Z,3.10
2023-05-08T03:11:03.282Z,2.77
2023-05-08T03:13:35.331Z,2.97
2023-05-08T03:16:05.087Z,3.00
2023-05-08T03:18:36.406Z,3.33
2023-05-08T03:21:06.350Z,3.30
2023-05-08T03:23:36.831Z,3.10
2023-05-08T03:26:06.394Z,3.40
2023-05-08T03:28:36.082Z,3.47
2023-05-08T03:31:05.396Z,3.10
2023-05-08T03:33:33.407Z,3.28
2023-05-08T03:36:00.729Z,2.70
2023-05-08T03:38:28.363Z,3.25
2023-05-08T03:40:55.921Z,3.30
2023-05-08T03:43:23.658Z,3.15
2023-05-08T03:45:51.286Z,3.08
2023-05-08T03:48:18.710Z,3.17
2023-05-08T03:50:46.056Z,3.30
2023-05-08T03:53:13.866Z,3.50
2023-05-08T03:55:42.010Z,3.47
2023-05-08T03:58:19.516Z,3.10
2023-05-08T04:00:50.704Z,2.90
2023-05-08T04:03:21.417Z,3.22
2023-05-08T04:05:54.636Z,3.22
2023-05-08T04:08:30.533Z,3.28
2023-05-08T04:10:58.139Z,2.90
2023-05-08T04:13:31.900Z,3.33
2023-05-08T04:16:12.571Z,3.30
2023-05-08T04:18:44.786Z,3.22
2023-05-08T04:21:16.175Z,3.25
2023-05-08T04:23:44.802Z,3.50
2023-05-08T04:26:15.229Z,3.47
2023-05-08T04:28:44.637Z,3.15
2023-05-08T04:31:12.096Z,3.42
2023-05-08T04:33:39.797Z,3.10
2023-05-08T04:36:11.472Z,3.22
2023-05-08T04:38:39.013Z,3.40
2023-05-08T04:41:07.525Z,3.20
2023-05-08T04:43:35.661Z,3.05
2023-05-08T04:46:04.497Z,3.40
2023-05-08T04:48:33.651Z,3.17
2023-05-08T04:51:01.710Z,3.10
2023-05-08T04:53:29.104Z,3.00
2023-05-08T04:55:58.068Z,3.10
2023-05-08T04:58:26.111Z,3.42
2023-05-08T05:00:54.282Z,3.08
2023-05-08T05:03:23.483Z,3.27
2023-05-08T05:05:57.636Z,3.17
2023-05-08T05:08:26.425Z,2.97
2023-05-08T05:10:54.766Z,3.38
2023-05-08T05:13:22.392Z,3.25
2023-05-08T05:15:53.328Z,3.47
2023-05-08T05:18:21.825Z,3.20
2023-05-08T05:20:50.870Z,3.38
2023-05-08T05:23:18.413Z,2.90
2023-05-08T05:25:45.856Z,3.55
2023-05-08T05:28:14.344Z,3.23
2023-05-08T05:30:42.432Z,3.33
2023-05-08T05:33:09.791Z,3.85
2023-05-08T05:35:38.653Z,3.15
2023-05-08T05:38:07.516Z,3.08
2023-05-08T05:40:34.894Z,3.00
2023-05-08T05:43:02.315Z,3.25
2023-05-08T05:45:32.514Z,3.20
2023-05-08T05:48:01.051Z,2.85
2023-05-08T05:50:29.062Z,3.15
2023-05-08T05:52:57.591Z,3.30
2023-05-08T05:55:26.070Z,2.42
2023-05-08T05:57:53.582Z,2.20
2023-05-08T06:00:21.868Z,2.40
2023-05-08T06:02:53.913Z,2.00
2023-05-08T06:05:21.421Z,2.20
2023-05-08T06:07:48.721Z,1.92
2023-05-08T06:10:16.150Z,2.35
2023-05-08T06:12:43.477Z,2.00
2023-05-08T06:15:11.781Z,2.00
2023-05-08T06:17:39.412Z,2.10
2023-05-08T06:20:07.326Z,1.50
2023-05-08T06:22:34.871Z,2.00
2023-05-08T06:25:03.323Z,2.17
2023-05-08T06:27:32.362Z,2.22
2023-05-08T06:30:01.939Z,1.97
2023-05-08T06:32:30.208Z,2.50
2023-05-08T06:34:58.006Z,2.63
2023-05-08T06:37:25.260Z,2.40
2023-05-08T06:40:03.881Z,2.45
2023-05-08T06:42:37.959Z,2.43
2023-05-08T06:45:06.897Z,2.50
2023-05-08T06:47:34.175Z,2.70
2023-05-08T06:50:01.762Z,2.65
2023-05-08T06:52:29.331Z,2.30
2023-05-08T06:54:56.675Z,2.60
2023-05-08T06:57:26.825Z,3.30
2023-05-08T06:59:54.527Z,2.97
2023-05-08T07:02:21.904Z,2.45
2023-05-08T07:04:49.414Z,2.55
2023-05-08T07:07:17.093Z,2.50
2023-05-08T07:09:44.469Z,2.42
2023-05-08T07:12:11.973Z,2.17
2023-05-08T07:14:39.298Z,2.83
2023-05-08T07:17:09.648Z,2.72
2023-05-08T07:19:37.384Z,2.30
2023-05-08T07:22:05.490Z,2.70
2023-05-08T07:24:33.407Z,2.58
2023-05-08T07:27:02.872Z,2.63
2023-05-08T07:29:30.317Z,3.78
2023-05-08T07:31:57.932Z,3.90
2023-05-08T07:34:26.621Z,2.30
2023-05-08T07:36:56.103Z,2.40
2023-05-08T07:39:23.439Z,2.10
2023-05-08T07:41:50.913Z,2.72
2023-05-08T07:44:18.167Z,2.10
2023-05-08T07:46:45.937Z,2.10
2023-05-08T07:49:14.706Z,1.95
2023-05-08T07:51:42.985Z,2.00
2023-05-08T07:54:10.166Z,2.00
2023-05-08T07:56:37.696Z,2.00
2023-05-08T07:59:06.175Z,1.90
2023-05-08T08:01:35.845Z,1.90
2023-05-08T08:04:04.515Z,1.90
2023-05-08T08:06:32.213Z,1.83
2023-05-08T08:08:59.728Z,2.10
2023-05-08T08:11:27.046Z,1.95
2023-05-08T08:13:54.300Z,2.35
2023-05-08T08:16:25.941Z,2.20
2023-05-08T08:18:53.478Z,2.72
2023-05-08T08:21:20.911Z,2.80
2023-05-08T08:23:48.353Z,2.97
2023-05-08T08:26:15.844Z,2.13
2023-05-08T08:28:47.744Z,2.20
2023-05-08T08:31:16.900Z,2.78
2023-05-08T08:33:47.059Z,2.90
2023-05-08T08:36:14.759Z,2.95
2023-05-08T08:38:42.758Z,2.75
2023-05-08T08:41:12.474Z,2.97
2023-05-08T08:43:43.622Z,3.28
2023-05-08T08:46:12.526Z,2.93
2023-05-08T08:48:42.497Z,2.35
2023-05-08T08:51:13.044Z,2.40
2023-05-08T08:53:44.759Z,2.75
2023-05-08T08:56:12.271Z,2.78
2023-05-08T08:58:47.232Z,2.70
2023-05-08T09:01:16.799Z,3.10
2023-05-08T09:03:44.942Z,3.10
2023-05-08T09:06:14.360Z,3.00
2023-05-08T09:08:41.995Z,3.08
2023-05-08T09:11:09.314Z,2.93
2023-05-08T09:13:36.718Z,3.50
2023-05-08T09:16:04.390Z,3.50
2023-05-08T09:18:32.003Z,4.35
2023-05-08T09:21:01.757Z,3.40
2023-05-08T09:23:29.299Z,3.80
2023-05-08T09:25:57.250Z,3.50
2023-05-08T09:28:25.774Z,3.10
2023-05-08T09:30:54.630Z,3.20
2023-05-08T09:33:24.250Z,3.47
2023-05-08T09:35:53.876Z,3.23
2023-05-08T09:38:34.122Z,3.10
2023-05-08T09:41:10.951Z,3.58
2023-05-08T09:43:43.355Z,3.20
2023-05-08T09:46:23.554Z,3.42
2023-05-08T09:48:52.698Z,4.33
2023-05-08T09:51:20.715Z,3.33
2023-05-08T09:53:51.414Z,3.25
2023-05-08T09:56:32.230Z,3.20
2023-05-08T09:58:59.967Z,3.20
2023-05-08T10:01:31.409Z,3.10
2023-05-08T10:03:59.690Z,3.15
2023-05-08T10:06:29.682Z,4.00
2023-05-08T10:09:14.148Z,3.78
2023-05-08T10:11:42.120Z,3.50
2023-05-08T10:14:09.483Z,3.27
2023-05-08T10:16:40.306Z,3.28
2023-05-08T10:19:11.810Z,3.17
2023-05-08T10:21:43.016Z,3.20
2023-05-08T10:24:13.909Z,2.67
2023-05-08T10:26:53.654Z,2.67
2023-05-08T10:29:34.570Z,2.67
2023-05-08T10:32:03.318Z,2.70
2023-05-08T10:34:32.733Z,2.60
2023-05-08T10:37:00.240Z,2.70
2023-05-08T10:39:28.418Z,2.70
2023-05-08T10:41:56.004Z,2.30
2023-05-08T10:44:23.968Z,2.40
2023-05-08T10:47:20.824Z,2.45
2023-05-08T10:50:17.024Z,2.53
2023-05-08T10:53:20.302Z,2.40
2023-05-08T10:55:51.847Z,2.30
2023-05-08T10:58:32.311Z,2.65
2023-05-08T11:01:00.896Z,2.30
2023-05-08T11:03:32.659Z,2.70
2023-05-08T11:06:01.567Z,2.40
2023-05-08T11:08:29.754Z,2.35
2023-05-08T11:11:00.081Z,2.30
2023-05-08T11:13:28.981Z,2.90
2023-05-08T11:15:58.636Z,2.10
2023-05-08T11:18:30.154Z,2.10
2023-05-08T11:21:07.315Z,2.47
2023-05-08T11:23:35.342Z,2.30
2023-05-08T11:26:06.530Z,2.38
2023-05-08T11:28:57.098Z,2.65
2023-05-08T11:31:24.563Z,2.20
2023-05-08T11:33:55.828Z,2.35
2023-05-08T11:36:24.899Z,2.15
2023-05-08T11:39:09.358Z,2.05
2023-05-08T11:41:36.962Z,2.00
2023-05-08T11:44:14.391Z,2.37
2023-05-08T11:46:51.281Z,2.22
2023-05-08T11:49:24.667Z,2.72
2023-05-08T11:51:55.909Z,2.10
2023-05-08T11:54:23.319Z,2.30
2023-05-08T11:56:51.922Z,2.10
2023-05-08T11:59:19.786Z,2.60
2023-05-08T12:04:21.257Z,2.40
2023-05-08T12:06:51.138Z,2.30
2023-05-08T12:09:19.526Z,2.60
2023-05-08T12:11:47.202Z,2.22
2023-05-08T12:14:17.748Z,2.10
2023-05-08T12:19:32.020Z,2.53
2023-05-08T12:21:59.654Z,2.30
2023-05-08T12:24:27.127Z,2.42
2023-05-08T12:26:55.900Z,2.65
2023-05-08T12:29:27.314Z,3.08
2023-05-08T12:31:54.804Z,2.38
2023-05-08T12:34:22.181Z,2.20
2023-05-08T12:36:49.858Z,2.55
2023-05-08T12:39:18.450Z,2.40
2023-05-08T12:41:52.873Z,2.45
2023-05-08T12:44:23.891Z,2.55
2023-05-08T12:46:52.097Z,2.23
2023-05-08T12:49:25.700Z,3.05
2023-05-08T12:52:00.565Z,2.72
2023-05-08T12:54:38.115Z,2.53
2023-05-08T12:57:12.268Z,2.50
2023-05-08T12:59:40.003Z,2.90
2023-05-08T13:02:16.784Z,2.45
2023-05-08T13:04:44.604Z,2.75
2023-05-08T13:07:12.292Z,2.50
2023-05-08T13:09:40.790Z,2.58
2023-05-08T13:12:09.900Z,2.73
2023-05-08T13:14:37.121Z,2.80
2023-05-08T13:17:07.650Z,2.42
2023-05-08T13:19:35.927Z,2.63
2023-05-08T13:22:04.217Z,2.40
2023-05-08T13:24:31.549Z,3.03
2023-05-08T13:26:58.901Z,2.50
2023-05-08T13:29:26.414Z,2.60
2023-05-08T13:31:53.785Z,3.03
2023-05-08T13:34:21.120Z,2.30
2023-05-08T13:36:48.503Z,2.87
2023-05-08T13:39:15.964Z,2.50
2023-05-08T13:41:43.204Z,2.50
2023-05-08T13:44:10.440Z,2.72
2023-05-08T13:46:39.867Z,2.42
2023-05-08T13:49:07.212Z,2.60
2023-05-08T13:51:34.557Z,2.42
2023-05-08T13:54:01.985Z,2.03
2023-05-08T13:56:29.327Z,2.28
2023-05-08T13:58:56.648Z,2.80
2023-05-08T14:01:28.173Z,2.47
2023-05-08T14:03:56.753Z,2.40
2023-05-08T14:06:27.266Z,2.80
2023-05-08T14:08:56.260Z,2.58
2023-05-08T14:11:24.600Z,2.75
2023-05-08T14:13:52.094Z,3.10
2023-05-08T14:16:19.500Z,2.47
2023-05-08T14:18:46.896Z,2.75
2023-05-08T14:21:15.993Z,2.60
2023-05-08T14:23:46.440Z,2.95
2023-05-08T14:26:13.727Z,2.70
2023-05-08T14:28:43.504Z,2.47
2023-05-08T14:31:11.829Z,2.85
2023-05-08T14:33:39.662Z,2.80
2023-05-08T14:36:07.290Z,2.70
2023-05-08T14:38:37.693Z,2.53
2023-05-08T14:41:05.184Z,2.78
2023-05-08T14:43:32.840Z,2.42
2023-05-08T14:46:00.364Z,2.80
2023-05-08T14:48:31.070Z,2.60
2023-05-08T14:50:58.506Z,2.90
2023-05-08T14:53:26.289Z,2.78
2023-05-08T14:55:53.720Z,2.50
2023-05-08T14:58:21.346Z,2.60
2023-05-08T15:00:48.595Z,2.60
2023-05-08T15:03:16.169Z,2.73
2023-05-08T15:05:44.868Z,2.33
2023-05-08T15:08:13.540Z,2.25
2023-05-08T15:10:40.975Z,2.60
2023-05-08T15:13:08.315Z,2.65
2023-05-08T15:15:35.662Z,2.30
2023-05-08T15:18:03.153Z,2.50
2023-05-08T15:20:30.561Z,2.33
2023-05-08T15:22:57.860Z,2.63
2023-05-08T15:25:26.497Z,2.35
2023-05-08T15:27:53.800Z,2.27
2023-05-08T15:30:21.476Z,2.53
2023-05-08T15:32:49.752Z,2.42
2023-05-08T15:35:17.338Z,2.53
2023-05-08T15:37:44.977Z,2.50
2023-05-08T15:40:12.732Z,2.60
2023-05-08T15:42:40.393Z,2.70
2023-05-08T15:45:08.500Z,2.70
2023-05-08T15:47:36.215Z,2.90
2023-05-08T15:50:04.963Z,2.60
2023-05-08T15:52:32.242Z,2.77
2023-05-08T15:55:00.909Z,2.47
2023-05-08T15:57:30.081Z,2.35
2023-05-08T15:59:58.617Z,2.35
2023-05-08T16:02:26.519Z,2.63
2023-05-08T16:05:01.236Z,2.50
2023-05-08T16:07:29.659Z,2.80
2023-05-08T16:10:00.255Z,2.50
2023-05-08T16:12:28.429Z,2.53
2023-05-08T16:14:56.107Z,3.00
2023-05-08T16:17:23.951Z,3.03
2023-05-08T16:19:51.684Z,3.00
2023-05-08T16:22:24.849Z,2.45
2023-05-08T16:24:55.319Z,2.47
2023-05-08T16:27:22.886Z,3.13
2023-05-08T16:29:50.484Z,3.13
2023-05-08T16:32:17.891Z,3.03
2023-05-08T16:34:48.369Z,2.83
2023-05-08T16:37:16.077Z,2.80
2023-05-08T16:39:43.305Z,2.92
2023-05-08T16:42:10.839Z,2.80
2023-05-08T16:44:40.108Z,3.08
2023-05-08T16:47:07.470Z,3.15
2023-05-08T16:49:36.705Z,2.78
2023-05-08T16:52:06.301Z,2.83
2023-05-08T16:54:33.808Z,2.97
2023-05-08T16:59:49.284Z,3.05
2023-05-08T17:02:19.340Z,3.03
2023-05-08T17:04:49.859Z,3.13
2023-05-08T17:07:20.080Z,3.07
2023-05-08T17:09:53.160Z,3.22
2023-05-08T17:12:20.282Z,3.10
2023-05-08T17:14:50.073Z,3.00
2023-05-08T17:17:19.894Z,3.20
2023-05-08T17:19:50.645Z,2.90
2023-05-08T17:22:26.593Z,3.17
2023-05-08T17:24:56.924Z,2.75
2023-05-08T17:27:25.244Z,2.90
2023-05-08T17:29:56.821Z,3.30
2023-05-08T17:32:26.802Z,3.10
2023-05-08T17:34:54.126Z,2.95
2023-05-08T17:37:27.898Z,2.80
2023-05-08T17:39:55.070Z,2.97
2023-05-08T17:42:22.430Z,3.10
2023-05-08T17:44:52.801Z,2.97
2023-05-08T17:47:20.167Z,3.03
2023-05-08T17:49:48.492Z,3.00
2023-05-08T17:52:16.274Z,3.03
2023-05-08T17:54:47.334Z,3.38
2023-05-08T17:57:14.669Z,3.40
2023-05-08T17:59:41.953Z,3.00
2023-05-08T18:02:09.434Z,3.20
2023-05-08T18:04:36.841Z,2.85
2023-05-08T18:07:04.523Z,3.20
2023-05-08T18:09:32.087Z,3.33
2023-05-08T18:12:02.769Z,3.63
2023-05-08T18:14:31.725Z,3.80
2023-05-08T18:17:00.500Z,3.55
2023-05-08T18:19:28.788Z,3.20
2023-05-08T18:21:56.044Z,3.53
2023-05-08T18:24:24.374Z,3.50
2023-05-08T18:26:52.692Z,3.85
2023-05-08T18:29:20.031Z,4.00
2023-05-08T18:35:12.464Z,3.83
2023-05-08T18:37:40.027Z,4.07
2023-05-08T18:40:09.275Z,3.90
2023-05-08T18:42:36.722Z,4.20
2023-05-08T18:45:06.463Z,4.53
2023-05-08T18:47:33.876Z,4.10
2023-05-08T18:50:01.376Z,4.07
2023-05-08T18:52:29.771Z,3.53
2023-05-08T18:54:57.217Z,3.92
2023-05-08T18:57:25.749Z,3.65
2023-05-08T18:59:53.366Z,3.90
2023-05-08T19:02:20.846Z,3.35
2023-05-08T19:04:48.308Z,3.45
2023-05-08T19:07:16.766Z,3.60
2023-05-08T19:09:46.197Z,3.70
2023-05-08T19:12:16.067Z,3.40
2023-05-08T19:17:32.395Z,3.20
2023-05-08T19:20:00.743Z,3.25
2023-05-08T19:22:27.836Z,3.67
2023-05-08T19:24:55.206Z,3.37
2023-05-08T19:27:22.299Z,3.30
2023-05-08T19:29:49.497Z,3.30
2023-05-08T19:32:16.630Z,3.42
2023-05-08T19:34:43.720Z,3.88
2023-05-08T19:37:10.809Z,3.80
2023-05-08T19:39:37.942Z,5.22
2023-05-08T19:42:05.486Z,5.75
2023-05-08T19:44:33.262Z,6.97
2023-05-08T19:47:03.062Z,5.57
2023-05-08T19:49:31.000Z,4.83
2023-05-08T19:51:58.030Z,4.30
2023-05-08T19:54:25.390Z,4.55
2023-05-08T19:56:52.633Z,4.65
2023-05-08T19:59:42.193Z,4.85
2023-05-08T20:02:09.760Z,4.60
2023-05-08T20:04:54.542Z,4.95
2023-05-08T20:07:24.907Z,5.43
2023-05-08T20:12:43.387Z,6.05
2023-05-08T20:15:13.528Z,5.90
2023-05-08T20:17:44.092Z,6.60
2023-05-08T20:20:12.022Z,6.97
2023-05-08T20:22:39.408Z,7.18
2023-05-08T20:25:07.172Z,8.65
2023-05-08T20:27:35.436Z,7.87
2023-05-08T20:30:02.998Z,8.82
2023-05-08T20:32:30.454Z,9.57
2023-05-08T20:35:00.710Z,9.43
2023-05-08T20:37:28.013Z,9.77
2023-05-08T20:39:55.416Z,9.37
2023-05-08T20:42:22.947Z,10.52
2023-05-08T20:44:51.512Z,10.30
2023-05-08T20:47:18.981Z,9.55
2023-05-08T20:49:48.010Z,9.65
2023-05-08T20:52:15.345Z,10.53
2023-05-08T20:54:44.879Z,9.68
2023-05-08T20:57:13.394Z,8.38
2023-05-08T20:59:46.517Z,7.63
2023-05-08T21:02:15.258Z,7.45
2023-05-08T21:04:44.696Z,6.33
2023-05-08T21:07:12.275Z,6.15
2023-05-08T21:09:39.444Z,5.97
2023-05-08T21:12:06.942Z,6.05
2023-05-08T21:14:37.756Z,6.43
2023-05-08T21:17:05.730Z,6.70
2023-05-08T21:19:33.316Z,6.88
2023-05-08T21:22:05.401Z,7.03
2023-05-08T21:24:32.818Z,7.80
2023-05-08T21:27:03.453Z,9.95
2023-05-08T21:29:30.918Z,11.60
2023-05-08T21:32:03.885Z,12.98
2023-05-08T21:34:31.787Z,13.77
2023-05-08T21:37:00.240Z,14.10
2023-05-08T21:39:27.827Z,16.35
2023-05-08T21:41:55.272Z,17.30
2023-05-08T21:44:24.481Z,17.70
2023-05-08T21:46:51.954Z,18.52
2023-05-08T21:49:19.535Z,22.42
2023-05-08T21:51:49.278Z,21.17
2023-05-08T21:54:16.874Z,22.97
2023-05-08T21:56:44.511Z,22.88
2023-05-08T21:59:25.709Z,24.33
2023-05-08T22:01:53.753Z,20.88
2023-05-08T22:04:21.963Z,21.35
2023-05-08T22:06:50.858Z,21.63
2023-05-08T22:09:21.680Z,20.30
2023-05-08T22:11:52.331Z,23.98
2023-05-08T22:14:20.001Z,20.88
2023-05-08T22:16:47.968Z,23.10
2023-05-08T22:19:15.708Z,32.80
2023-05-08T22:21:48.134Z,27.48
2023-05-08T22:24:27.731Z,20.33
2023-05-08T22:26:57.516Z,20.10
2023-05-08T22:29:30.802Z,18.88
2023-05-08T22:32:01.385Z,18.43
2023-05-08T22:34:30.047Z,17.63
2023-05-08T22:36:57.324Z,18.08
2023-05-08T22:39:27.818Z,16.27
2023-05-08T22:42:00.596Z,15.80
2023-05-08T22:44:41.651Z,15.43
2023-05-08T22:47:12.873Z,14.85
2023-05-08T22:49:47.072Z,15.82
2023-05-08T22:52:32.819Z,14.18
2023-05-08T22:55:07.079Z,13.32
2023-05-08T22:57:40.702Z,13.30
2023-05-08T23:00:08.462Z,12.57
2023-05-08T23:02:40.690Z,12.35
2023-05-08T23:05:13.071Z,11.50
2023-05-08T23:07:41.841Z,11.88
2023-05-08T23:10:12.770Z,11.87
2023-05-08T23:12:44.923Z,11.75
2023-05-08T23:15:15.216Z,12.88
2023-05-08T23:17:42.627Z,12.93
2023-05-08T23:20:10.661Z,14.02
2023-05-08T23:22:41.287Z,13.83
2023-05-08T23:25:17.551Z,15.00
2023-05-08T23:27:53.055Z,14.40
2023-05-08T23:30:25.234Z,14.30
2023-05-08T23:32:55.133Z,13.98
2023-05-08T23:35:25.226Z,13.83
2023-05-08T23:37:55.177Z,13.27
2023-05-08T23:40:22.596Z,13.07
2023-05-08T23:42:52.383Z,13.57
2023-05-08T23:45:21.113Z,12.55
2023-05-08T23:47:49.927Z,12.80
2023-05-08T23:50:28.306Z,12.57
2023-05-08T23:53:07.161Z,12.07
2023-05-08T23:55:36.998Z,11.82
2023-05-08T23:58:04.836Z,12.23
